sensor_id;sensor_type;location;lat;lon;timestamp;temperature;humidity
28484;DHT22;15704;48.834;8.736;2024-03-02T00:00:40;11.70;95.80
28484;DHT22;15704;48.834;8.736;2024-03-02T00:03:07;11.70;95.80
28484;DHT22;15704;48.834;8.736;2024-03-02T00:05:36;11.70;95.80
28484;DHT22;15704;48.834;8.736;2024-03-02T00:08:04;11.70;95.80
28484;DHT22;15704;48.834;8.736;2024-03-02T00:10:39;11.70;95.80
28484;DHT22;15704;48.834;8.736;2024-03-02T00:13:08;11.70;95.80
28484;DHT22;15704;48.834;8.736;2024-03-02T00:15:41;11.70;95.80
28484;DHT22;15704;48.834;8.736;2024-03-02T00:18:19;11.70;95.80
28484;DHT22;15704;48.834;8.736;2024-03-02T00:20:46;11.60;95.80
28484;DHT22;15704;48.834;8.736;2024-03-02T00:23:16;11.70;95.80
28484;DHT22;15704;48.834;8.736;2024-03-02T00:25:48;11.60;95.80
28484;DHT22;15704;48.834;8.736;2024-03-02T00:28:22;11.70;95.80
28484;DHT22;15704;48.834;8.736;2024-03-02T00:30:56;11.70;95.80
28484;DHT22;15704;48.834;8.736;2024-03-02T00:33:26;11.60;95.80
28484;DHT22;15704;48.834;8.736;2024-03-02T00:35:55;11.70;95.80
28484;DHT22;15704;48.834;8.736;2024-03-02T00:38:22;11.60;95.80
28484;DHT22;15704;48.834;8.736;2024-03-02T00:40:49;11.60;95.80
28484;DHT22;15704;48.834;8.736;2024-03-02T00:43:41;11.70;95.80
28484;DHT22;15704;48.834;8.736;2024-03-02T00:46:15;11.60;95.80
28484;DHT22;15704;48.834;8.736;2024-03-02T00:48:55;11.60;95.80
28484;DHT22;15704;48.834;8.736;2024-03-02T00:51:24;11.60;95.80
28484;DHT22;15704;48.834;8.736;2024-03-02T00:53:52;11.60;95.80
28484;DHT22;15704;48.834;8.736;2024-03-02T00:56:24;11.60;95.80
28484;DHT22;15704;48.834;8.736;2024-03-02T00:58:52;11.60;95.80
28484;DHT22;15704;48.834;8.736;2024-03-02T01:01:19;11.60;95.80
28484;DHT22;15704;48.834;8.736;2024-03-02T01:03:47;11.70;95.80
28484;DHT22;15704;48.834;8.736;2024-03-02T01:06:14;11.60;95.80
28484;DHT22;15704;48.834;8.736;2024-03-02T01:08:41;11.60;95.80
28484;DHT22;15704;48.834;8.736;2024-03-02T01:11:08;11.60;95.80
28484;DHT22;15704;48.834;8.736;2024-03-02T01:13:35;11.60;95.80
28484;DHT22;15704;48.834;8.736;2024-03-02T01:16:02;11.60;95.80
28484;DHT22;15704;48.834;8.736;2024-03-02T01:18:30;11.60;95.80
28484;DHT22;15704;48.834;8.736;2024-03-02T01:20:57;11.60;95.80
28484;DHT22;15704;48.834;8.736;2024-03-02T01:23:24;11.60;95.80
28484;DHT22;15704;48.834;8.736;2024-03-02T01:25:52;11.60;95.80
28484;DHT22;15704;48.834;8.736;2024-03-02T01:28:19;11.60;95.80
28484;DHT22;15704;48.834;8.736;2024-03-02T01:30:47;11.60;95.80
28484;DHT22;15704;48.834;8.736;2024-03-02T01:33:15;11.60;95.80
28484;DHT22;15704;48.834;8.736;2024-03-02T01:35:42;11.70;95.80
28484;DHT22;15704;48.834;8.736;2024-03-02T01:38:09;11.60;95.70
28484;DHT22;15704;48.834;8.736;2024-03-02T01:40:36;11.60;95.80
28484;DHT22;15704;48.834;8.736;2024-03-02T01:43:05;11.60;95.70
28484;DHT22;15704;48.834;8.736;2024-03-02T01:45:32;11.60;95.70
28484;DHT22;15704;48.834;8.736;2024-03-02T01:47:59;11.60;95.70
28484;DHT22;15704;48.834;8.736;2024-03-02T01:50:31;11.60;95.70
28484;DHT22;15704;48.834;8.736;2024-03-02T01:52:59;11.60;95.80
28484;DHT22;15704;48.834;8.736;2024-03-02T01:55:26;11.60;95.70
28484;DHT22;15704;48.834;8.736;2024-03-02T01:57:56;11.60;95.80
28484;DHT22;15704;48.834;8.736;2024-03-02T02:00:23;11.60;95.70
28484;DHT22;15704;48.834;8.736;2024-03-02T02:02:53;11.60;95.70
28484;DHT22;15704;48.834;8.736;2024-03-02T02:05:20;11.60;95.70
28484;DHT22;15704;48.834;8.736;2024-03-02T02:07:48;11.60;95.70
28484;DHT22;15704;48.834;8.736;2024-03-02T02:10:15;11.60;95.70
28484;DHT22;15704;48.834;8.736;2024-03-02T02:12:42;11.60;96.00
28484;DHT22;15704;48.834;8.736;2024-03-02T02:15:29;11.60;95.70
28484;DHT22;15704;48.834;8.736;2024-03-02T02:17:57;11.60;95.70
28484;DHT22;15704;48.834;8.736;2024-03-02T02:20:25;11.60;95.70
28484;DHT22;15704;48.834;8.736;2024-03-02T02:22:58;11.60;95.70
28484;DHT22;15704;48.834;8.736;2024-03-02T02:25:26;11.60;95.80
28484;DHT22;15704;48.834;8.736;2024-03-02T02:27:54;11.60;95.70
28484;DHT22;15704;48.834;8.736;2024-03-02T02:30:26;11.60;95.80
28484;DHT22;15704;48.834;8.736;2024-03-02T02:32:54;11.60;95.80
28484;DHT22;15704;48.834;8.736;2024-03-02T02:35:21;11.60;95.70
28484;DHT22;15704;48.834;8.736;2024-03-02T02:37:48;11.60;95.70
28484;DHT22;15704;48.834;8.736;2024-03-02T02:40:16;11.60;95.70
28484;DHT22;15704;48.834;8.736;2024-03-02T02:42:43;11.60;95.70
28484;DHT22;15704;48.834;8.736;2024-03-02T02:45:10;11.60;95.70
28484;DHT22;15704;48.834;8.736;2024-03-02T02:47:37;11.60;95.70
28484;DHT22;15704;48.834;8.736;2024-03-02T02:50:07;11.60;95.70
28484;DHT22;15704;48.834;8.736;2024-03-02T02:52:35;11.60;95.70
28484;DHT22;15704;48.834;8.736;2024-03-02T02:55:04;11.60;95.70
28484;DHT22;15704;48.834;8.736;2024-03-02T02:57:32;11.60;95.70
28484;DHT22;15704;48.834;8.736;2024-03-02T03:00:15;11.60;96.10
28484;DHT22;15704;48.834;8.736;2024-03-02T03:02:46;11.60;95.70
28484;DHT22;15704;48.834;8.736;2024-03-02T03:05:15;11.60;95.70
28484;DHT22;15704;48.834;8.736;2024-03-02T03:07:42;11.60;95.70
28484;DHT22;15704;48.834;8.736;2024-03-02T03:10:11;11.60;95.70
28484;DHT22;15704;48.834;8.736;2024-03-02T03:12:37;11.60;95.70
28484;DHT22;15704;48.834;8.736;2024-03-02T03:15:05;11.60;95.70
28484;DHT22;15704;48.834;8.736;2024-03-02T03:17:33;11.60;95.70
28484;DHT22;15704;48.834;8.736;2024-03-02T03:20:02;11.60;95.70
28484;DHT22;15704;48.834;8.736;2024-03-02T03:22:31;11.50;95.70
28484;DHT22;15704;48.834;8.736;2024-03-02T03:25:02;11.60;95.70
28484;DHT22;15704;48.834;8.736;2024-03-02T03:27:30;11.60;95.70
28484;DHT22;15704;48.834;8.736;2024-03-02T03:29:58;11.60;95.70
28484;DHT22;15704;48.834;8.736;2024-03-02T03:32:25;11.50;95.70
28484;DHT22;15704;48.834;8.736;2024-03-02T03:34:52;11.50;95.70
28484;DHT22;15704;48.834;8.736;2024-03-02T03:37:19;11.50;95.70
28484;DHT22;15704;48.834;8.736;2024-03-02T03:39:45;11.50;95.70
28484;DHT22;15704;48.834;8.736;2024-03-02T03:42:12;11.60;95.70
28484;DHT22;15704;48.834;8.736;2024-03-02T03:44:39;11.60;95.70
28484;DHT22;15704;48.834;8.736;2024-03-02T03:47:08;11.60;95.60
28484;DHT22;15704;48.834;8.736;2024-03-02T03:49:34;11.60;96.00
28484;DHT22;15704;48.834;8.736;2024-03-02T03:52:01;11.60;95.70
28484;DHT22;15704;48.834;8.736;2024-03-02T03:54:28;11.60;95.70
28484;DHT22;15704;48.834;8.736;2024-03-02T03:56:55;11.50;95.60
28484;DHT22;15704;48.834;8.736;2024-03-02T03:59:23;11.50;95.60
28484;DHT22;15704;48.834;8.736;2024-03-02T04:01:50;11.60;95.70
28484;DHT22;15704;48.834;8.736;2024-03-02T04:04:17;11.60;95.70
28484;DHT22;15704;48.834;8.736;2024-03-02T04:06:44;11.60;95.70
28484;DHT22;15704;48.834;8.736;2024-03-02T04:09:11;11.60;95.70
28484;DHT22;15704;48.834;8.736;2024-03-02T04:11:38;11.60;95.70
28484;DHT22;15704;48.834;8.736;2024-03-02T04:14:04;11.50;95.60
28484;DHT22;15704;48.834;8.736;2024-03-02T04:16:32;11.60;95.70
28484;DHT22;15704;48.834;8.736;2024-03-02T04:19:00;11.50;95.60
28484;DHT22;15704;48.834;8.736;2024-03-02T04:21:26;11.60;95.60
28484;DHT22;15704;48.834;8.736;2024-03-02T04:23:53;11.60;95.60
28484;DHT22;15704;48.834;8.736;2024-03-02T04:26:27;11.60;95.60
28484;DHT22;15704;48.834;8.736;2024-03-02T04:28:53;11.50;95.60
28484;DHT22;15704;48.834;8.736;2024-03-02T04:31:21;11.50;95.60
28484;DHT22;15704;48.834;8.736;2024-03-02T04:33:48;11.50;95.60
28484;DHT22;15704;48.834;8.736;2024-03-02T04:36:15;11.50;95.60
28484;DHT22;15704;48.834;8.736;2024-03-02T04:38:42;11.50;95.60
28484;DHT22;15704;48.834;8.736;2024-03-02T04:41:08;11.50;95.60
28484;DHT22;15704;48.834;8.736;2024-03-02T04:43:35;11.50;95.60
28484;DHT22;15704;48.834;8.736;2024-03-02T04:46:02;11.60;95.60
28484;DHT22;15704;48.834;8.736;2024-03-02T04:48:29;11.50;95.60
28484;DHT22;15704;48.834;8.736;2024-03-02T04:50:56;11.50;95.60
28484;DHT22;15704;48.834;8.736;2024-03-02T04:53:23;11.50;95.60
28484;DHT22;15704;48.834;8.736;2024-03-02T04:55:50;11.50;95.60
28484;DHT22;15704;48.834;8.736;2024-03-02T04:58:35;11.50;95.60
28484;DHT22;15704;48.834;8.736;2024-03-02T05:01:02;11.50;95.60
28484;DHT22;15704;48.834;8.736;2024-03-02T05:03:28;11.50;95.60
28484;DHT22;15704;48.834;8.736;2024-03-02T05:05:55;11.50;95.60
28484;DHT22;15704;48.834;8.736;2024-03-02T05:08:22;11.50;95.60
28484;DHT22;15704;48.834;8.736;2024-03-02T05:10:49;11.50;95.60
28484;DHT22;15704;48.834;8.736;2024-03-02T05:13:16;11.50;95.60
28484;DHT22;15704;48.834;8.736;2024-03-02T05:15:44;11.50;95.60
28484;DHT22;15704;48.834;8.736;2024-03-02T05:18:11;11.50;95.60
28484;DHT22;15704;48.834;8.736;2024-03-02T05:20:38;11.50;95.60
28484;DHT22;15704;48.834;8.736;2024-03-02T05:23:05;11.50;95.60
28484;DHT22;15704;48.834;8.736;2024-03-02T05:25:31;11.50;95.60
28484;DHT22;15704;48.834;8.736;2024-03-02T05:27:58;11.50;95.60
28484;DHT22;15704;48.834;8.736;2024-03-02T05:30:25;11.60;95.60
28484;DHT22;15704;48.834;8.736;2024-03-02T05:32:52;11.50;95.60
28484;DHT22;15704;48.834;8.736;2024-03-02T05:35:19;11.60;95.60
28484;DHT22;15704;48.834;8.736;2024-03-02T05:37:46;11.50;95.60
28484;DHT22;15704;48.834;8.736;2024-03-02T05:40:13;11.50;95.60
28484;DHT22;15704;48.834;8.736;2024-03-02T05:42:40;11.50;95.60
28484;DHT22;15704;48.834;8.736;2024-03-02T05:45:08;11.50;95.60
28484;DHT22;15704;48.834;8.736;2024-03-02T05:47:35;11.50;95.60
28484;DHT22;15704;48.834;8.736;2024-03-02T05:50:02;11.50;95.60
28484;DHT22;15704;48.834;8.736;2024-03-02T05:52:30;11.50;95.60
28484;DHT22;15704;48.834;8.736;2024-03-02T05:54:57;11.50;95.60
28484;DHT22;15704;48.834;8.736;2024-03-02T05:57:24;11.50;95.60
28484;DHT22;15704;48.834;8.736;2024-03-02T06:00:10;11.50;95.60
28484;DHT22;15704;48.834;8.736;2024-03-02T06:02:40;11.50;95.60
28484;DHT22;15704;48.834;8.736;2024-03-02T06:05:07;11.50;95.50
28484;DHT22;15704;48.834;8.736;2024-03-02T06:07:34;11.50;95.60
28484;DHT22;15704;48.834;8.736;2024-03-02T06:10:01;11.50;95.60
28484;DHT22;15704;48.834;8.736;2024-03-02T06:12:31;11.50;95.60
28484;DHT22;15704;48.834;8.736;2024-03-02T06:14:57;11.50;95.60
28484;DHT22;15704;48.834;8.736;2024-03-02T06:17:24;11.50;95.60
28484;DHT22;15704;48.834;8.736;2024-03-02T06:19:51;11.50;95.60
28484;DHT22;15704;48.834;8.736;2024-03-02T06:22:18;11.50;95.60
28484;DHT22;15704;48.834;8.736;2024-03-02T06:24:45;11.50;95.60
28484;DHT22;15704;48.834;8.736;2024-03-02T06:27:12;11.50;95.60
28484;DHT22;15704;48.834;8.736;2024-03-02T06:29:39;11.50;95.60
28484;DHT22;15704;48.834;8.736;2024-03-02T06:32:06;11.50;95.50
28484;DHT22;15704;48.834;8.736;2024-03-02T06:34:33;11.50;95.50
28484;DHT22;15704;48.834;8.736;2024-03-02T06:36:59;11.50;95.50
28484;DHT22;15704;48.834;8.736;2024-03-02T06:39:28;11.50;95.50
28484;DHT22;15704;48.834;8.736;2024-03-02T06:41:55;11.50;95.50
28484;DHT22;15704;48.834;8.736;2024-03-02T06:44:22;11.50;95.50
28484;DHT22;15704;48.834;8.736;2024-03-02T06:46:48;11.50;95.50
28484;DHT22;15704;48.834;8.736;2024-03-02T06:49:15;11.50;95.50
28484;DHT22;15704;48.834;8.736;2024-03-02T06:51:44;11.50;95.50
28484;DHT22;15704;48.834;8.736;2024-03-02T06:54:11;11.40;95.50
28484;DHT22;15704;48.834;8.736;2024-03-02T06:56:38;11.50;95.60
28484;DHT22;15704;48.834;8.736;2024-03-02T06:59:05;11.50;95.60
28484;DHT22;15704;48.834;8.736;2024-03-02T07:01:32;11.50;95.50
28484;DHT22;15704;48.834;8.736;2024-03-02T07:03:59;11.50;95.50
28484;DHT22;15704;48.834;8.736;2024-03-02T07:06:26;11.50;95.50
28484;DHT22;15704;48.834;8.736;2024-03-02T07:08:53;11.50;95.50
28484;DHT22;15704;48.834;8.736;2024-03-02T07:11:19;11.50;95.50
28484;DHT22;15704;48.834;8.736;2024-03-02T07:13:46;11.50;95.40
28484;DHT22;15704;48.834;8.736;2024-03-02T07:16:13;11.50;95.40
28484;DHT22;15704;48.834;8.736;2024-03-02T07:18:56;11.50;95.50
28484;DHT22;15704;48.834;8.736;2024-03-02T07:21:23;11.50;95.40
28484;DHT22;15704;48.834;8.736;2024-03-02T07:23:50;11.50;95.50
28484;DHT22;15704;48.834;8.736;2024-03-02T07:26:17;11.50;95.50
28484;DHT22;15704;48.834;8.736;2024-03-02T07:28:50;11.50;95.50
28484;DHT22;15704;48.834;8.736;2024-03-02T07:31:20;11.40;95.40
28484;DHT22;15704;48.834;8.736;2024-03-02T07:33:49;11.40;95.40
28484;DHT22;15704;48.834;8.736;2024-03-02T07:36:16;11.50;95.50
28484;DHT22;15704;48.834;8.736;2024-03-02T07:38:43;11.50;95.40
28484;DHT22;15704;48.834;8.736;2024-03-02T07:41:11;11.50;95.40
28484;DHT22;15704;48.834;8.736;2024-03-02T07:43:38;11.50;95.40
28484;DHT22;15704;48.834;8.736;2024-03-02T07:46:05;11.50;95.40
28484;DHT22;15704;48.834;8.736;2024-03-02T07:48:32;11.50;95.40
28484;DHT22;15704;48.834;8.736;2024-03-02T07:50:59;11.50;95.40
28484;DHT22;15704;48.834;8.736;2024-03-02T07:53:26;11.50;95.40
28484;DHT22;15704;48.834;8.736;2024-03-02T07:55:53;11.50;95.40
28484;DHT22;15704;48.834;8.736;2024-03-02T07:58:20;11.50;95.40
28484;DHT22;15704;48.834;8.736;2024-03-02T08:00:48;11.50;95.40
28484;DHT22;15704;48.834;8.736;2024-03-02T08:03:17;11.50;95.40
28484;DHT22;15704;48.834;8.736;2024-03-02T08:05:44;11.50;95.40
28484;DHT22;15704;48.834;8.736;2024-03-02T08:08:11;11.50;95.40
28484;DHT22;15704;48.834;8.736;2024-03-02T08:10:38;11.50;95.40
28484;DHT22;15704;48.834;8.736;2024-03-02T08:13:05;11.50;95.40
28484;DHT22;15704;48.834;8.736;2024-03-02T08:15:32;11.50;95.30
28484;DHT22;15704;48.834;8.736;2024-03-02T08:17:58;11.50;95.40
28484;DHT22;15704;48.834;8.736;2024-03-02T08:20:25;11.50;95.30
28484;DHT22;15704;48.834;8.736;2024-03-02T08:22:52;11.50;95.30
28484;DHT22;15704;48.834;8.736;2024-03-02T08:25:21;11.50;95.30
28484;DHT22;15704;48.834;8.736;2024-03-02T08:27:49;11.50;95.30
28484;DHT22;15704;48.834;8.736;2024-03-02T08:30:16;11.50;95.30
28484;DHT22;15704;48.834;8.736;2024-03-02T08:32:42;11.50;95.30
28484;DHT22;15704;48.834;8.736;2024-03-02T08:35:09;11.50;95.30
28484;DHT22;15704;48.834;8.736;2024-03-02T08:37:38;11.50;95.30
28484;DHT22;15704;48.834;8.736;2024-03-02T08:40:07;11.50;95.30
28484;DHT22;15704;48.834;8.736;2024-03-02T08:42:34;11.50;95.30
28484;DHT22;15704;48.834;8.736;2024-03-02T08:45:01;11.50;95.30
28484;DHT22;15704;48.834;8.736;2024-03-02T08:47:28;11.50;95.30
28484;DHT22;15704;48.834;8.736;2024-03-02T08:49:56;11.50;95.30
28484;DHT22;15704;48.834;8.736;2024-03-02T08:52:27;11.50;95.40
28484;DHT22;15704;48.834;8.736;2024-03-02T08:54:54;11.50;95.30
28484;DHT22;15704;48.834;8.736;2024-03-02T08:57:20;11.50;95.30
28484;DHT22;15704;48.834;8.736;2024-03-02T08:59:47;11.50;95.30
28484;DHT22;15704;48.834;8.736;2024-03-02T09:02:14;11.50;95.30
28484;DHT22;15704;48.834;8.736;2024-03-02T09:04:41;11.50;95.30
28484;DHT22;15704;48.834;8.736;2024-03-02T09:07:08;11.50;95.30
28484;DHT22;15704;48.834;8.736;2024-03-02T09:09:34;11.60;95.30
28484;DHT22;15704;48.834;8.736;2024-03-02T09:12:01;11.60;95.30
28484;DHT22;15704;48.834;8.736;2024-03-02T09:14:28;11.60;95.20
28484;DHT22;15704;48.834;8.736;2024-03-02T09:16:55;11.50;95.20
28484;DHT22;15704;48.834;8.736;2024-03-02T09:19:22;11.60;95.20
28484;DHT22;15704;48.834;8.736;2024-03-02T09:21:49;11.60;95.20
28484;DHT22;15704;48.834;8.736;2024-03-02T09:24:16;11.60;95.20
28484;DHT22;15704;48.834;8.736;2024-03-02T09:26:44;11.50;95.20
28484;DHT22;15704;48.834;8.736;2024-03-02T09:29:11;11.60;95.60
28484;DHT22;15704;48.834;8.736;2024-03-02T09:31:41;11.60;95.30
28484;DHT22;15704;48.834;8.736;2024-03-02T09:34:08;11.60;95.30
28484;DHT22;15704;48.834;8.736;2024-03-02T09:36:35;11.70;95.30
28484;DHT22;15704;48.834;8.736;2024-03-02T09:39:02;11.60;95.40
28484;DHT22;15704;48.834;8.736;2024-03-02T09:41:30;11.60;95.40
28484;DHT22;15704;48.834;8.736;2024-03-02T09:43:57;11.60;95.40
28484;DHT22;15704;48.834;8.736;2024-03-02T09:46:24;11.60;95.40
28484;DHT22;15704;48.834;8.736;2024-03-02T09:48:51;11.60;95.40
28484;DHT22;15704;48.834;8.736;2024-03-02T09:51:19;11.60;95.40
28484;DHT22;15704;48.834;8.736;2024-03-02T09:53:47;11.60;95.30
28484;DHT22;15704;48.834;8.736;2024-03-02T09:56:14;11.60;95.30
28484;DHT22;15704;48.834;8.736;2024-03-02T09:58:42;11.70;95.30
28484;DHT22;15704;48.834;8.736;2024-03-02T10:01:10;11.60;95.30
28484;DHT22;15704;48.834;8.736;2024-03-02T10:03:37;11.60;95.30
28484;DHT22;15704;48.834;8.736;2024-03-02T10:06:24;11.60;95.30
28484;DHT22;15704;48.834;8.736;2024-03-02T10:08:52;11.60;95.30
28484;DHT22;15704;48.834;8.736;2024-03-02T10:11:33;11.60;95.40
28484;DHT22;15704;48.834;8.736;2024-03-02T10:14:08;11.60;95.30
28484;DHT22;15704;48.834;8.736;2024-03-02T10:19:22;11.70;95.40
28484;DHT22;15704;48.834;8.736;2024-03-02T10:21:50;11.70;95.40
28484;DHT22;15704;48.834;8.736;2024-03-02T10:24:18;11.70;95.40
28484;DHT22;15704;48.834;8.736;2024-03-02T10:26:45;11.70;95.40
28484;DHT22;15704;48.834;8.736;2024-03-02T10:29:13;11.70;95.70
28484;DHT22;15704;48.834;8.736;2024-03-02T10:31:41;11.70;95.40
28484;DHT22;15704;48.834;8.736;2024-03-02T10:34:10;11.70;95.50
28484;DHT22;15704;48.834;8.736;2024-03-02T10:36:42;11.70;95.50
28484;DHT22;15704;48.834;8.736;2024-03-02T10:39:09;11.70;95.50
28484;DHT22;15704;48.834;8.736;2024-03-02T10:41:38;11.70;95.50
28484;DHT22;15704;48.834;8.736;2024-03-02T10:44:06;11.70;95.50
28484;DHT22;15704;48.834;8.736;2024-03-02T10:46:38;11.70;95.50
28484;DHT22;15704;48.834;8.736;2024-03-02T10:49:05;11.70;95.50
28484;DHT22;15704;48.834;8.736;2024-03-02T10:51:35;11.70;95.50
28484;DHT22;15704;48.834;8.736;2024-03-02T10:54:04;11.70;95.50
28484;DHT22;15704;48.834;8.736;2024-03-02T11:01:39;11.70;95.40
28484;DHT22;15704;48.834;8.736;2024-03-02T11:04:08;11.70;95.40
28484;DHT22;15704;48.834;8.736;2024-03-02T11:06:36;11.70;95.80
28484;DHT22;15704;48.834;8.736;2024-03-02T11:09:07;11.70;95.40
28484;DHT22;15704;48.834;8.736;2024-03-02T11:11:41;11.70;95.50
28484;DHT22;15704;48.834;8.736;2024-03-02T11:14:14;11.70;95.50
28484;DHT22;15704;48.834;8.736;2024-03-02T11:16:43;11.70;95.50
28484;DHT22;15704;48.834;8.736;2024-03-02T11:19:14;11.70;95.50
28484;DHT22;15704;48.834;8.736;2024-03-02T11:21:43;11.70;95.50
28484;DHT22;15704;48.834;8.736;2024-03-02T11:26:51;11.70;95.40
28484;DHT22;15704;48.834;8.736;2024-03-02T11:32:04;11.80;95.50
28484;DHT22;15704;48.834;8.736;2024-03-02T11:34:32;11.80;95.50
28484;DHT22;15704;48.834;8.736;2024-03-02T11:37:03;11.80;95.50
28484;DHT22;15704;48.834;8.736;2024-03-02T11:39:31;11.80;95.50
28484;DHT22;15704;48.834;8.736;2024-03-02T11:41:58;11.80;95.50
28484;DHT22;15704;48.834;8.736;2024-03-02T11:44:26;11.70;95.50
28484;DHT22;15704;48.834;8.736;2024-03-02T11:47:00;11.70;95.90
28484;DHT22;15704;48.834;8.736;2024-03-02T11:52:09;11.70;95.60
28484;DHT22;15704;48.834;8.736;2024-03-02T11:54:39;11.70;95.60
28484;DHT22;15704;48.834;8.736;2024-03-02T11:57:07;11.70;95.60
28484;DHT22;15704;48.834;8.736;2024-03-02T11:59:34;11.70;95.60
28484;DHT22;15704;48.834;8.736;2024-03-02T12:02:01;11.70;95.60
28484;DHT22;15704;48.834;8.736;2024-03-02T12:04:29;11.70;95.70
28484;DHT22;15704;48.834;8.736;2024-03-02T12:06:59;11.70;95.70
28484;DHT22;15704;48.834;8.736;2024-03-02T12:09:27;11.70;95.70
28484;DHT22;15704;48.834;8.736;2024-03-02T12:12:09;11.70;95.70
28484;DHT22;15704;48.834;8.736;2024-03-02T12:14:37;11.70;95.70
28484;DHT22;15704;48.834;8.736;2024-03-02T12:17:05;11.70;95.80
28484;DHT22;15704;48.834;8.736;2024-03-02T12:19:33;11.70;95.80
28484;DHT22;15704;48.834;8.736;2024-03-02T12:22:00;11.60;95.90
28484;DHT22;15704;48.834;8.736;2024-03-02T12:24:29;11.70;95.90
28484;DHT22;15704;48.834;8.736;2024-03-02T12:26:57;11.60;95.90
28484;DHT22;15704;48.834;8.736;2024-03-02T12:29:24;11.70;96.00
28484;DHT22;15704;48.834;8.736;2024-03-02T12:31:52;11.60;96.00
28484;DHT22;15704;48.834;8.736;2024-03-02T12:34:21;11.60;96.00
28484;DHT22;15704;48.834;8.736;2024-03-02T12:36:49;11.60;96.00
28484;DHT22;15704;48.834;8.736;2024-03-02T12:39:19;11.60;96.10
28484;DHT22;15704;48.834;8.736;2024-03-02T12:41:46;11.60;96.10
28484;DHT22;15704;48.834;8.736;2024-03-02T12:44:13;11.60;96.20
28484;DHT22;15704;48.834;8.736;2024-03-02T12:46:40;11.60;96.20
28484;DHT22;15704;48.834;8.736;2024-03-02T12:49:09;11.60;96.20
28484;DHT22;15704;48.834;8.736;2024-03-02T12:51:40;11.60;96.30
28484;DHT22;15704;48.834;8.736;2024-03-02T12:54:10;11.60;96.50
28484;DHT22;15704;48.834;8.736;2024-03-02T12:56:38;11.60;96.60
28484;DHT22;15704;48.834;8.736;2024-03-02T12:59:05;11.70;96.70
28484;DHT22;15704;48.834;8.736;2024-03-02T13:01:32;11.70;96.80
28484;DHT22;15704;48.834;8.736;2024-03-02T13:03:59;11.70;96.90
28484;DHT22;15704;48.834;8.736;2024-03-02T13:06:26;11.70;96.90
28484;DHT22;15704;48.834;8.736;2024-03-02T13:08:56;11.70;96.80
28484;DHT22;15704;48.834;8.736;2024-03-02T13:11:23;11.70;96.90
28484;DHT22;15704;48.834;8.736;2024-03-02T13:13:51;11.70;96.90
28484;DHT22;15704;48.834;8.736;2024-03-02T13:16:18;11.60;96.80
28484;DHT22;15704;48.834;8.736;2024-03-02T13:18:58;11.60;96.80
28484;DHT22;15704;48.834;8.736;2024-03-02T13:21:25;11.60;96.80
28484;DHT22;15704;48.834;8.736;2024-03-02T13:23:52;11.60;96.80
28484;DHT22;15704;48.834;8.736;2024-03-02T13:26:19;11.60;96.80
28484;DHT22;15704;48.834;8.736;2024-03-02T13:28:45;11.60;96.80
28484;DHT22;15704;48.834;8.736;2024-03-02T13:31:12;11.60;96.80
28484;DHT22;15704;48.834;8.736;2024-03-02T13:33:39;11.60;96.80
28484;DHT22;15704;48.834;8.736;2024-03-02T13:36:06;11.60;96.80
28484;DHT22;15704;48.834;8.736;2024-03-02T13:38:33;11.60;96.80
28484;DHT22;15704;48.834;8.736;2024-03-02T13:41:00;11.60;96.80
28484;DHT22;15704;48.834;8.736;2024-03-02T13:43:27;11.60;96.80
28484;DHT22;15704;48.834;8.736;2024-03-02T13:45:58;11.60;96.90
28484;DHT22;15704;48.834;8.736;2024-03-02T13:48:25;11.60;96.90
28484;DHT22;15704;48.834;8.736;2024-03-02T13:50:52;11.60;96.90
28484;DHT22;15704;48.834;8.736;2024-03-02T13:53:20;11.60;96.90
28484;DHT22;15704;48.834;8.736;2024-03-02T13:55:46;11.60;96.90
28484;DHT22;15704;48.834;8.736;2024-03-02T13:58:13;11.60;96.90
28484;DHT22;15704;48.834;8.736;2024-03-02T14:00:40;11.60;96.90
28484;DHT22;15704;48.834;8.736;2024-03-02T14:03:07;11.60;96.90
28484;DHT22;15704;48.834;8.736;2024-03-02T14:05:34;11.60;96.90
28484;DHT22;15704;48.834;8.736;2024-03-02T14:08:01;11.60;96.90
28484;DHT22;15704;48.834;8.736;2024-03-02T14:10:28;11.60;96.90
28484;DHT22;15704;48.834;8.736;2024-03-02T14:12:55;11.60;96.90
28484;DHT22;15704;48.834;8.736;2024-03-02T14:15:23;11.60;96.90
28484;DHT22;15704;48.834;8.736;2024-03-02T14:17:50;11.60;96.90
28484;DHT22;15704;48.834;8.736;2024-03-02T14:20:18;11.70;97.00
28484;DHT22;15704;48.834;8.736;2024-03-02T14:22:49;11.60;97.00
28484;DHT22;15704;48.834;8.736;2024-03-02T14:25:16;11.60;96.90
28484;DHT22;15704;48.834;8.736;2024-03-02T14:27:43;11.60;97.00
28484;DHT22;15704;48.834;8.736;2024-03-02T14:30:30;11.60;96.90
28484;DHT22;15704;48.834;8.736;2024-03-02T14:32:57;11.60;96.90
28484;DHT22;15704;48.834;8.736;2024-03-02T14:35:24;11.60;96.90
28484;DHT22;15704;48.834;8.736;2024-03-02T14:37:51;11.60;96.90
28484;DHT22;15704;48.834;8.736;2024-03-02T14:40:18;11.60;96.90
28484;DHT22;15704;48.834;8.736;2024-03-02T14:42:45;11.60;96.90
28484;DHT22;15704;48.834;8.736;2024-03-02T14:45:14;11.60;96.90
28484;DHT22;15704;48.834;8.736;2024-03-02T14:47:41;11.60;96.90
28484;DHT22;15704;48.834;8.736;2024-03-02T14:50:08;11.60;96.90
28484;DHT22;15704;48.834;8.736;2024-03-02T14:52:36;11.60;96.90
28484;DHT22;15704;48.834;8.736;2024-03-02T14:55:03;11.60;96.90
28484;DHT22;15704;48.834;8.736;2024-03-02T14:57:31;11.60;96.90
28484;DHT22;15704;48.834;8.736;2024-03-02T14:59:57;11.60;96.90
28484;DHT22;15704;48.834;8.736;2024-03-02T15:02:24;11.60;96.90
28484;DHT22;15704;48.834;8.736;2024-03-02T15:04:51;11.60;97.00
28484;DHT22;15704;48.834;8.736;2024-03-02T15:07:18;11.60;96.90
28484;DHT22;15704;48.834;8.736;2024-03-02T15:09:45;11.60;96.90
28484;DHT22;15704;48.834;8.736;2024-03-02T15:12:12;11.60;97.00
28484;DHT22;15704;48.834;8.736;2024-03-02T15:14:40;11.60;96.90
28484;DHT22;15704;48.834;8.736;2024-03-02T15:17:13;11.60;97.00
28484;DHT22;15704;48.834;8.736;2024-03-02T15:19:44;11.60;96.90
28484;DHT22;15704;48.834;8.736;2024-03-02T15:22:12;11.60;97.00
28484;DHT22;15704;48.834;8.736;2024-03-02T15:24:39;11.60;97.00
28484;DHT22;15704;48.834;8.736;2024-03-02T15:27:06;11.60;97.00
28484;DHT22;15704;48.834;8.736;2024-03-02T15:29:35;11.60;97.00
28484;DHT22;15704;48.834;8.736;2024-03-02T15:32:05;11.60;97.00
28484;DHT22;15704;48.834;8.736;2024-03-02T15:34:33;11.60;97.00
28484;DHT22;15704;48.834;8.736;2024-03-02T15:37:00;11.60;97.00
28484;DHT22;15704;48.834;8.736;2024-03-02T15:39:28;11.60;97.00
28484;DHT22;15704;48.834;8.736;2024-03-02T15:41:55;11.60;97.00
28484;DHT22;15704;48.834;8.736;2024-03-02T15:44:21;11.60;97.00
28484;DHT22;15704;48.834;8.736;2024-03-02T15:46:49;11.60;97.00
28484;DHT22;15704;48.834;8.736;2024-03-02T15:49:16;11.70;97.00
28484;DHT22;15704;48.834;8.736;2024-03-02T15:51:46;11.60;96.90